Time;durP1;ratioP1;P1;durP2;ratioP2;P2;SDS_P1;SDS_P2;PMS_P1;PMS_P2;Temp;Humidity;BMP_temperature;BMP_pressure;BME280_temperature;BME280_humidity;BME280_pressure;Samples;Min_cycle;Max_cycle;Signal;HPM_P1;HPM_P2
2024/03/06 00:01:57;;;;;;;22.27;15.80;;;4.40;99.90;;;;;;5068902;28;20583;-71
2024/03/06 00:04:24;;;;;;;21.10;14.53;;;4.40;99.90;;;;;;5085791;28;20525;-72
2024/03/06 00:06:53;;;;;;;18.63;14.10;;;4.40;99.90;;;;;;5089029;28;20285;-72
2024/03/06 00:09:20;;;;;;;18.07;13.80;;;4.40;99.90;;;;;;5089055;28;20207;-71
2024/03/06 00:11:47;;;;;;;16.50;13.20;;;4.40;99.90;;;;;;5088732;28;20318;-71
2024/03/06 00:14:15;;;;;;;17.70;14.27;;;4.40;99.90;;;;;;5088653;28;20265;-71
2024/03/06 00:16:43;;;;;;;20.43;13.77;;;4.40;99.90;;;;;;5088765;28;20287;-71
2024/03/06 00:19:10;;;;;;;16.70;13.27;;;4.30;99.90;;;;;;5088878;28;20226;-71
2024/03/06 00:21:37;;;;;;;17.73;13.70;;;4.30;99.90;;;;;;5088473;28;20293;-71
2024/03/06 00:24:04;;;;;;;17.27;13.60;;;4.30;99.90;;;;;;5088690;28;20293;-71
2024/03/06 00:26:31;;;;;;;16.73;13.30;;;4.30;99.90;;;;;;5088629;28;20202;-71
2024/03/06 00:28:59;;;;;;;16.03;13.53;;;4.30;99.90;;;;;;5088656;28;20295;-71
2024/03/06 00:31:27;;;;;;;18.10;13.40;;;4.20;99.90;;;;;;5088839;28;20289;-71
2024/03/06 00:33:54;;;;;;;18.97;13.33;;;4.20;99.90;;;;;;5088240;28;20290;-71
2024/03/06 00:36:22;;;;;;;16.57;13.43;;;4.20;99.90;;;;;;5086992;28;20199;-72
2024/03/06 00:38:49;;;;;;;17.17;13.00;;;4.20;99.90;;;;;;5088863;28;20266;-73
2024/03/06 00:41:16;;;;;;;17.37;13.40;;;4.20;99.90;;;;;;5088511;28;20285;-73
2024/03/06 00:43:43;;;;;;;16.60;12.90;;;4.20;99.90;;;;;;5087799;28;20993;-73
2024/03/06 00:46:09;;;;;;;18.07;13.50;;;4.10;99.90;;;;;;5068270;28;20200;-73
2024/03/06 00:48:39;;;;;;;14.73;12.30;;;4.10;99.90;;;;;;5068129;28;20760;-73
2024/03/06 00:51:06;;;;;;;19.13;14.07;;;4.10;99.90;;;;;;5068261;28;20214;-73
2024/03/06 00:53:33;;;;;;;16.17;13.47;;;4.10;99.90;;;;;;5068275;28;20207;-73
2024/03/06 00:55:59;;;;;;;16.53;13.37;;;4.10;99.90;;;;;;5087280;28;20297;-73
2024/03/06 00:58:26;;;;;;;17.27;13.97;;;4.10;99.90;;;;;;5088112;28;20245;-73
2024/03/06 01:00:53;;;;;;;21.80;13.93;;;4.10;99.90;;;;;;5087932;28;20230;-73
2024/03/06 01:03:20;;;;;;;19.67;13.73;;;4.00;99.90;;;;;;5087605;28;20297;-73
2024/03/06 01:05:48;;;;;;;19.67;13.50;;;4.00;99.90;;;;;;5087725;28;20297;-73
2024/03/06 01:08:17;;;;;;;18.47;14.13;;;4.00;99.90;;;;;;5087571;28;20293;-73
2024/03/06 01:10:44;;;;;;;18.57;13.70;;;4.00;99.90;;;;;;5087396;28;20226;-73
2024/03/06 01:13:11;;;;;;;16.73;13.47;;;3.90;99.90;;;;;;5086803;28;20230;-73
2024/03/06 01:15:38;;;;;;;16.53;13.40;;;3.90;99.90;;;;;;5087630;28;20430;-73
2024/03/06 01:18:06;;;;;;;18.77;13.07;;;3.90;99.90;;;;;;5087767;28;20290;-73
2024/03/06 01:20:32;;;;;;;16.80;13.00;;;3.90;99.90;;;;;;5084411;28;21136;-73
2024/03/06 01:23:01;;;;;;;18.57;13.07;;;3.90;99.90;;;;;;5087664;28;20757;-72
2024/03/06 01:25:28;;;;;;;19.07;13.53;;;3.90;99.90;;;;;;5086890;28;20205;-72
2024/03/06 01:27:55;;;;;;;19.30;13.10;;;3.90;99.90;;;;;;5087587;28;20290;-72
2024/03/06 01:30:22;;;;;;;19.30;13.53;;;3.90;99.90;;;;;;5087421;28;20835;-72
2024/03/06 01:32:48;;;;;;;16.50;13.27;;;3.80;99.90;;;;;;5087440;28;20298;-72
2024/03/06 01:35:16;;;;;;;18.40;12.70;;;3.80;99.90;;;;;;5087584;28;20880;-73
2024/03/06 01:37:43;;;;;;;17.37;13.27;;;3.70;99.90;;;;;;5087746;28;20207;-73
2024/03/06 01:40:12;;;;;;;15.03;12.57;;;3.70;99.90;;;;;;5087115;28;20235;-73
2024/03/06 01:42:39;;;;;;;16.63;12.73;;;3.70;99.90;;;;;;5087148;28;20713;-73
2024/03/06 01:45:08;;;;;;;16.57;12.83;;;3.60;99.90;;;;;;5087696;28;20207;-73
2024/03/06 01:47:34;;;;;;;16.80;13.10;;;3.60;99.90;;;;;;5087529;28;20207;-73
2024/03/06 01:50:02;;;;;;;16.00;13.17;;;3.60;99.90;;;;;;5087546;28;20290;-73
2024/03/06 01:52:30;;;;;;;16.17;13.87;;;3.60;99.90;;;;;;5086952;28;20322;-72
2024/03/06 01:54:57;;;;;;;16.97;12.97;;;3.60;99.90;;;;;;5087497;28;20285;-74
2024/03/06 01:57:26;;;;;;;15.00;12.70;;;3.50;99.90;;;;;;5087524;28;20677;-72
2024/03/06 01:59:53;;;;;;;21.17;13.70;;;3.50;99.90;;;;;;5087620;28;20226;-72
2024/03/06 02:02:20;;;;;;;15.50;12.37;;;3.50;99.90;;;;;;5087415;28;20237;-72
2024/03/06 02:04:47;;;;;;;15.57;12.33;;;3.50;99.90;;;;;;5068175;28;20630;-72
2024/03/06 02:07:15;;;;;;;15.97;13.33;;;3.50;99.90;;;;;;5067260;28;20243;-72
2024/03/06 02:09:42;;;;;;;16.37;13.00;;;3.50;99.90;;;;;;5085907;28;20207;-72
2024/03/06 02:12:09;;;;;;;18.50;13.00;;;3.40;99.90;;;;;;5086469;28;20271;-72
2024/03/06 02:14:38;;;;;;;20.13;13.50;;;3.40;99.90;;;;;;5087397;28;20249;-72
2024/03/06 02:17:05;;;;;;;14.90;13.30;;;3.40;99.90;;;;;;5086960;28;20289;-72
2024/03/06 02:19:41;;;;;;;18.53;13.83;;;3.40;99.90;;;;;;5087325;28;20313;-72
2024/03/06 02:22:10;;;;;;;16.83;13.30;;;3.30;99.90;;;;;;5093803;28;20297;-72
2024/03/06 02:24:38;;;;;;;16.80;13.67;;;3.30;99.90;;;;;;5093203;28;20309;-72
2024/03/06 02:27:05;;;;;;;19.00;12.43;;;3.30;99.90;;;;;;5093553;28;20202;-72
2024/03/06 02:29:33;;;;;;;15.57;12.90;;;3.30;99.90;;;;;;5092559;28;20232;-72
2024/03/06 02:32:02;;;;;;;17.27;13.00;;;3.20;99.90;;;;;;5093802;28;20563;-73
2024/03/06 02:34:29;;;;;;;15.50;12.53;;;3.20;99.90;;;;;;5093256;28;20207;-73
2024/03/06 02:36:56;;;;;;;17.83;13.37;;;3.20;99.90;;;;;;5093465;28;20214;-73
2024/03/06 02:39:25;;;;;;;15.37;12.87;;;3.20;99.90;;;;;;5093439;28;20207;-73
2024/03/06 02:41:52;;;;;;;14.90;12.27;;;3.30;99.90;;;;;;5092897;28;20289;-73
2024/03/06 02:44:18;;;;;;;16.43;12.37;;;3.20;99.90;;;;;;5092549;28;20738;-73
2024/03/06 02:46:49;;;;;;;17.27;12.53;;;3.20;99.90;;;;;;5093650;28;20294;-73
2024/03/06 02:49:16;;;;;;;16.97;13.20;;;3.20;99.90;;;;;;5093620;28;20210;-73
2024/03/06 02:51:43;;;;;;;15.50;12.27;;;3.20;99.90;;;;;;5093371;28;20298;-73
2024/03/06 02:54:10;;;;;;;16.30;12.37;;;3.20;99.90;;;;;;5093090;28;20199;-73
2024/03/06 02:56:38;;;;;;;17.90;13.03;;;3.20;99.90;;;;;;5093137;28;20285;-73
2024/03/06 02:59:05;;;;;;;17.80;12.80;;;3.20;99.90;;;;;;5093420;28;20242;-73
2024/03/06 03:01:32;;;;;;;17.17;12.67;;;3.20;99.90;;;;;;5092918;28;20313;-73
2024/03/06 03:03:59;;;;;;;16.43;12.37;;;3.20;99.90;;;;;;5093259;28;20238;-73
2024/03/06 03:06:29;;;;;;;18.13;13.03;;;3.20;99.90;;;;;;5093064;28;20280;-73
2024/03/06 03:08:56;;;;;;;16.77;12.77;;;3.20;99.90;;;;;;5093431;28;20253;-73
2024/03/06 03:11:22;;;;;;;14.70;12.23;;;3.10;99.90;;;;;;5092841;28;20226;-71
2024/03/06 03:13:51;;;;;;;15.57;13.10;;;3.10;99.90;;;;;;5093117;28;20668;-72
2024/03/06 03:16:18;;;;;;;16.53;13.07;;;3.10;99.90;;;;;;5092969;28;20194;-72
2024/03/06 03:18:45;;;;;;;17.63;12.50;;;3.20;99.90;;;;;;5093038;28;20654;-72
2024/03/06 03:21:13;;;;;;;15.20;12.10;;;3.10;99.90;;;;;;5093089;28;20234;-71
2024/03/06 03:23:40;;;;;;;20.50;13.17;;;3.10;99.90;;;;;;5092659;28;20195;-70
2024/03/06 03:26:07;;;;;;;16.83;12.77;;;3.10;99.90;;;;;;5092329;28;20664;-71
2024/03/06 03:28:34;;;;;;;14.80;11.73;;;3.10;99.90;;;;;;5089506;28;20309;-71
2024/03/06 03:31:02;;;;;;;21.53;13.10;;;3.00;99.90;;;;;;5090713;28;20198;-71
2024/03/06 03:33:29;;;;;;;16.63;12.30;;;3.00;99.90;;;;;;5086766;28;20293;-71
2024/03/06 03:35:56;;;;;;;17.93;13.77;;;3.00;99.90;;;;;;5087785;28;20952;-72
2024/03/06 03:38:23;;;;;;;17.10;12.73;;;3.00;99.90;;;;;;5087680;28;21049;-71
2024/03/06 03:40:50;;;;;;;15.97;13.07;;;3.00;99.90;;;;;;5086847;28;20242;-71
2024/03/06 03:43:17;;;;;;;21.07;13.53;;;2.90;99.90;;;;;;5087456;28;20205;-71
2024/03/06 03:45:44;;;;;;;18.80;13.07;;;3.00;99.90;;;;;;5087294;28;20252;-71
2024/03/06 03:48:12;;;;;;;16.80;13.40;;;2.90;99.90;;;;;;5087248;28;20207;-71
2024/03/06 03:50:39;;;;;;;17.77;13.13;;;2.90;99.90;;;;;;5087059;28;20225;-72
2024/03/06 03:53:06;;;;;;;15.97;12.63;;;2.90;99.90;;;;;;5087605;28;20290;-72
2024/03/06 03:55:33;;;;;;;19.70;13.20;;;2.90;99.90;;;;;;5086078;28;20198;-72
2024/03/06 03:58:00;;;;;;;16.97;12.77;;;2.90;99.90;;;;;;5089086;28;20267;-72
2024/03/06 04:00:27;;;;;;;16.47;12.03;;;2.80;99.90;;;;;;5089159;28;20288;-72
2024/03/06 04:02:54;;;;;;;16.43;12.30;;;2.80;99.90;;;;;;5088291;28;20206;-72
2024/03/06 04:05:23;;;;;;;16.00;12.13;;;2.90;99.90;;;;;;5088369;28;20305;-72
2024/03/06 04:07:50;;;;;;;14.90;11.57;;;2.80;99.90;;;;;;5088861;28;20250;-71
2024/03/06 04:10:17;;;;;;;16.27;12.23;;;2.80;99.90;;;;;;5088647;28;20317;-72
2024/03/06 04:12:44;;;;;;;15.63;11.83;;;2.80;99.90;;;;;;5089021;28;20671;-71
2024/03/06 04:15:11;;;;;;;17.20;12.27;;;2.80;99.90;;;;;;5088957;28;20962;-72
2024/03/06 04:17:38;;;;;;;14.80;12.63;;;2.70;99.90;;;;;;5089299;28;20242;-71
2024/03/06 04:20:07;;;;;;;17.33;12.60;;;2.70;99.90;;;;;;5089507;28;20339;-71
2024/03/06 04:22:36;;;;;;;16.17;12.43;;;2.70;99.90;;;;;;5088597;28;20211;-71
2024/03/06 04:25:04;;;;;;;17.00;11.90;;;2.70;99.90;;;;;;5088877;28;20299;-71
2024/03/06 04:27:31;;;;;;;15.47;11.90;;;2.70;99.90;;;;;;5088890;28;20210;-71
2024/03/06 04:29:58;;;;;;;17.10;12.30;;;2.60;99.90;;;;;;5088921;28;20203;-72
2024/03/06 04:32:25;;;;;;;19.57;12.87;;;2.60;99.90;;;;;;5088768;28;20207;-71
2024/03/06 04:34:53;;;;;;;15.40;12.00;;;2.40;99.90;;;;;;5088625;28;20237;-71
2024/03/06 04:37:20;;;;;;;15.70;13.00;;;2.50;99.90;;;;;;5088625;28;20203;-71
2024/03/06 04:39:48;;;;;;;18.20;12.27;;;2.50;99.90;;;;;;5088439;28;20310;-71
2024/03/06 04:42:15;;;;;;;16.67;13.10;;;2.40;99.90;;;;;;5088639;28;20238;-71
2024/03/06 04:44:43;;;;;;;15.13;11.83;;;2.40;99.90;;;;;;5087006;28;20317;-71
2024/03/06 04:47:10;;;;;;;15.80;12.37;;;2.40;99.90;;;;;;5088375;28;20662;-71
2024/03/06 04:49:36;;;;;;;16.87;12.30;;;2.50;99.90;;;;;;5088573;28;20265;-71
2024/03/06 04:52:03;;;;;;;14.20;12.27;;;2.50;99.90;;;;;;5088422;28;20210;-71
2024/03/06 04:54:31;;;;;;;15.67;12.37;;;2.50;99.90;;;;;;5088353;28;20203;-71
2024/03/06 04:56:59;;;;;;;17.60;12.60;;;2.50;99.90;;;;;;5088373;28;20260;-71
2024/03/06 04:59:26;;;;;;;16.13;11.80;;;2.40;99.90;;;;;;5088368;28;20202;-71
2024/03/06 05:01:53;;;;;;;15.97;12.37;;;2.40;99.90;;;;;;5088092;28;20261;-71
2024/03/06 05:04:21;;;;;;;14.57;11.73;;;2.30;99.90;;;;;;5088730;28;20363;-71
2024/03/06 05:06:48;;;;;;;17.33;12.67;;;2.30;99.90;;;;;;5088249;28;21068;-71
2024/03/06 05:09:15;;;;;;;17.60;12.23;;;2.30;99.90;;;;;;5088091;28;20203;-71
2024/03/06 05:11:41;;;;;;;16.70;12.30;;;2.30;99.90;;;;;;5087826;28;20473;-72
2024/03/06 05:14:10;;;;;;;17.13;12.23;;;2.30;99.90;;;;;;5087794;28;20345;-71
2024/03/06 05:16:36;;;;;;;16.50;12.53;;;2.30;99.90;;;;;;5088095;28;20327;-72
2024/03/06 05:19:04;;;;;;;17.90;13.37;;;2.30;99.90;;;;;;5087425;28;20211;-72
2024/03/06 05:21:31;;;;;;;18.10;12.80;;;2.20;99.90;;;;;;5087998;28;20238;-71
2024/03/06 05:23:58;;;;;;;19.97;11.90;;;2.20;99.90;;;;;;5087938;28;20297;-72
2024/03/06 05:26:25;;;;;;;15.30;12.07;;;2.30;99.90;;;;;;5087779;28;20210;-71
2024/03/06 05:28:51;;;;;;;16.17;12.00;;;2.30;99.90;;;;;;5088192;28;20293;-72
2024/03/06 05:31:20;;;;;;;19.10;12.03;;;2.30;99.90;;;;;;5087589;28;20214;-72
2024/03/06 05:33:49;;;;;;;18.77;12.63;;;2.40;99.90;;;;;;5088019;28;20207;-72
2024/03/06 05:36:17;;;;;;;17.20;12.97;;;2.40;99.90;;;;;;5087372;28;20222;-71
2024/03/06 05:38:44;;;;;;;18.63;12.63;;;2.40;99.90;;;;;;5087577;28;20215;-72
2024/03/06 05:41:11;;;;;;;15.70;12.47;;;2.20;99.90;;;;;;5087122;28;20299;-71
2024/03/06 05:43:38;;;;;;;15.67;12.60;;;2.20;99.90;;;;;;5087294;28;20215;-71
2024/03/06 05:46:05;;;;;;;17.63;12.33;;;2.30;99.90;;;;;;5087250;28;20205;-72
2024/03/06 05:48:34;;;;;;;17.33;12.77;;;2.30;99.90;;;;;;5087149;28;20297;-72
2024/03/06 05:51:00;;;;;;;17.57;12.77;;;2.40;99.90;;;;;;5087357;28;20644;-71
2024/03/06 05:53:27;;;;;;;14.50;11.77;;;2.30;99.90;;;;;;5087344;28;20646;-72
2024/03/06 05:55:55;;;;;;;18.47;14.10;;;2.30;99.90;;;;;;5084739;28;20216;-71
2024/03/06 05:58:22;;;;;;;18.37;13.13;;;2.30;99.90;;;;;;5085423;28;20299;-71
2024/03/06 06:00:49;;;;;;;17.83;12.83;;;2.40;99.90;;;;;;5087305;28;20226;-71
2024/03/06 06:03:17;;;;;;;14.43;11.53;;;2.40;99.90;;;;;;5087347;28;20649;-72
2024/03/06 06:05:45;;;;;;;15.10;12.30;;;2.40;99.90;;;;;;5086942;28;20211;-71
2024/03/06 06:08:12;;;;;;;14.80;11.30;;;2.50;99.90;;;;;;5087141;28;20218;-71
2024/03/06 06:10:39;;;;;;;14.77;10.87;;;2.50;99.90;;;;;;5086406;28;20691;-71
2024/03/06 06:13:06;;;;;;;15.23;12.20;;;2.60;99.90;;;;;;5086587;28;20775;-70
2024/03/06 06:15:33;;;;;;;15.03;11.07;;;2.60;99.90;;;;;;5086568;28;20722;-70
2024/03/06 06:18:00;;;;;;;16.87;11.87;;;2.60;99.90;;;;;;5086827;28;20620;-70
2024/03/06 06:20:27;;;;;;;14.77;11.60;;;2.60;99.90;;;;;;5086578;28;20209;-70
2024/03/06 06:22:55;;;;;;;14.30;11.13;;;2.60;99.90;;;;;;5086525;28;20714;-70
2024/03/06 06:25:22;;;;;;;15.77;11.53;;;2.70;99.90;;;;;;5086712;28;20301;-70
2024/03/06 06:27:49;;;;;;;15.67;11.53;;;2.80;99.90;;;;;;5086632;28;20297;-70
2024/03/06 06:30:16;;;;;;;14.57;11.13;;;2.90;99.90;;;;;;5086573;28;20214;-70
2024/03/06 06:32:44;;;;;;;13.47;11.20;;;3.00;99.90;;;;;;5086812;28;20214;-70
2024/03/06 06:35:13;;;;;;;14.37;11.67;;;3.00;99.90;;;;;;5086818;28;20206;-70
2024/03/06 06:37:40;;;;;;;25.07;12.30;;;3.00;99.90;;;;;;5086242;28;20202;-71
2024/03/06 06:40:12;;;;;;;27.93;12.77;;;3.00;99.90;;;;;;5086816;28;20280;-70
2024/03/06 06:42:47;;;;;;;41.17;13.20;;;3.00;99.90;;;;;;5086999;28;20218;-70
2024/03/06 06:45:14;;;;;;;34.97;14.73;;;3.00;99.90;;;;;;5086608;28;20260;-70
2024/03/06 06:47:41;;;;;;;33.27;14.63;;;2.90;99.90;;;;;;5086659;28;20303;-71
2024/03/06 06:50:09;;;;;;;22.53;13.47;;;2.90;99.90;;;;;;5087070;28;20253;-70
2024/03/06 06:52:35;;;;;;;23.60;14.17;;;2.90;99.90;;;;;;5086738;28;20203;-70
2024/03/06 06:55:03;;;;;;;19.83;12.33;;;3.00;99.90;;;;;;5086649;28;20215;-71
2024/03/06 06:57:32;;;;;;;17.27;12.97;;;3.00;99.90;;;;;;5086360;28;20210;-70
2024/03/06 06:59:59;;;;;;;21.10;12.73;;;3.10;99.90;;;;;;5086901;28;20203;-70
2024/03/06 07:02:27;;;;;;;19.77;12.43;;;3.20;99.90;;;;;;5086560;28;20241;-71
2024/03/06 07:04:54;;;;;;;18.60;12.60;;;3.20;99.90;;;;;;5086322;28;20211;-70
2024/03/06 07:07:21;;;;;;;21.23;12.60;;;3.30;99.90;;;;;;5088133;28;20213;-70
2024/03/06 07:09:49;;;;;;;16.27;12.70;;;3.30;99.90;;;;;;5090049;28;20230;-71
2024/03/06 07:12:15;;;;;;;16.77;12.00;;;3.40;99.90;;;;;;5090308;28;20238;-70
2024/03/06 07:14:44;;;;;;;18.27;12.40;;;3.50;99.90;;;;;;5090238;28;20207;-70
2024/03/06 07:17:10;;;;;;;24.47;13.17;;;3.50;99.90;;;;;;5090428;28;20601;-70
2024/03/06 07:19:37;;;;;;;15.93;12.50;;;3.50;99.90;;;;;;5090125;28;20238;-71
2024/03/06 07:22:04;;;;;;;19.07;12.87;;;3.60;99.90;;;;;;5090316;28;20226;-71
2024/03/06 07:24:31;;;;;;;17.00;12.83;;;3.70;99.90;;;;;;5089884;28;20298;-70
2024/03/06 07:26:58;;;;;;;17.33;12.80;;;3.80;99.90;;;;;;5090237;28;20245;-71
2024/03/06 07:29:25;;;;;;;17.50;13.07;;;3.90;99.90;;;;;;5090205;28;20207;-70
2024/03/06 07:31:53;;;;;;;16.37;12.57;;;3.90;99.90;;;;;;5089896;28;20206;-70
2024/03/06 07:34:21;;;;;;;16.37;13.03;;;4.00;99.90;;;;;;5089578;28;20744;-71
2024/03/06 07:36:48;;;;;;;19.73;13.40;;;4.10;99.90;;;;;;5089565;28;20209;-70
2024/03/06 07:39:16;;;;;;;15.33;12.33;;;4.20;99.90;;;;;;5089719;28;20297;-70
2024/03/06 07:41:43;;;;;;;17.83;13.50;;;4.30;99.90;;;;;;5089295;28;20241;-70
2024/03/06 07:44:10;;;;;;;20.60;12.63;;;4.40;99.90;;;;;;5089772;28;20242;-70
2024/03/06 07:46:37;;;;;;;17.67;13.10;;;4.40;99.90;;;;;;5089850;28;20298;-70
2024/03/06 07:49:06;;;;;;;18.77;13.20;;;4.50;99.90;;;;;;5089600;28;20312;-70
2024/03/06 07:51:33;;;;;;;17.10;12.90;;;4.60;99.90;;;;;;5089377;28;20293;-70
2024/03/06 07:54:00;;;;;;;16.70;13.10;;;4.70;99.90;;;;;;5089824;28;20199;-71
2024/03/06 07:56:28;;;;;;;16.03;13.27;;;4.80;99.90;;;;;;5088837;28;20207;-70
2024/03/06 07:58:55;;;;;;;16.43;12.37;;;4.90;99.90;;;;;;5089243;28;20588;-70
2024/03/06 08:01:22;;;;;;;19.57;12.70;;;4.90;99.90;;;;;;5089265;28;20218;-70
2024/03/06 08:03:49;;;;;;;17.13;13.40;;;5.00;99.90;;;;;;5089038;28;20298;-71
2024/03/06 08:06:19;;;;;;;17.63;13.20;;;5.10;99.90;;;;;;5089251;28;20304;-71
2024/03/06 08:08:46;;;;;;;24.50;14.70;;;5.20;99.90;;;;;;5089100;28;20687;-70
2024/03/06 08:11:14;;;;;;;17.50;13.63;;;5.20;99.90;;;;;;5089005;28;20226;-71
2024/03/06 08:13:41;;;;;;;16.73;12.80;;;5.30;99.90;;;;;;5088885;28;20754;-71
2024/03/06 08:16:08;;;;;;;22.80;13.80;;;5.40;99.90;;;;;;5089208;28;20501;-70
2024/03/06 08:18:37;;;;;;;20.20;14.50;;;5.50;99.90;;;;;;5088747;28;20285;-70
2024/03/06 08:21:06;;;;;;;13.33;11.93;;;5.50;99.90;;;;;;5089344;28;20306;-70
2024/03/06 08:23:34;;;;;;;17.73;13.70;;;5.60;99.90;;;;;;5088784;28;20207;-72
2024/03/06 08:26:01;;;;;;;15.27;12.70;;;5.70;99.90;;;;;;5088841;28;21027;-71
2024/03/06 08:28:28;;;;;;;20.57;13.00;;;5.80;99.90;;;;;;5088603;28;21082;-71
2024/03/06 08:30:54;;;;;;;18.73;13.83;;;5.80;99.90;;;;;;5088877;28;20268;-70
2024/03/06 08:33:22;;;;;;;17.37;12.77;;;5.90;99.90;;;;;;5088803;28;20264;-71
2024/03/06 08:35:49;;;;;;;18.80;12.77;;;5.90;99.90;;;;;;5089118;28;20207;-70
2024/03/06 08:38:17;;;;;;;19.40;14.40;;;5.90;99.90;;;;;;5088687;28;20227;-71
2024/03/06 08:40:46;;;;;;;16.50;12.77;;;5.90;99.90;;;;;;5088480;28;20291;-70
2024/03/06 08:43:15;;;;;;;15.83;12.20;;;6.00;99.90;;;;;;5088289;28;20241;-71
2024/03/06 08:45:42;;;;;;;18.07;12.80;;;6.00;99.90;;;;;;5088584;28;20202;-70
2024/03/06 08:48:09;;;;;;;16.13;12.03;;;6.00;99.90;;;;;;5088196;28;20272;-70
2024/03/06 08:50:35;;;;;;;12.17;10.60;;;6.00;99.90;;;;;;5088138;28;20668;-70
2024/03/06 08:53:02;;;;;;;17.13;11.70;;;6.10;99.90;;;;;;5088524;28;20245;-70
2024/03/06 08:55:29;;;;;;;13.43;12.03;;;6.10;99.90;;;;;;5087689;28;20665;-70
2024/03/06 08:57:58;;;;;;;12.87;11.47;;;6.10;99.90;;;;;;5088213;28;20217;-71
2024/03/06 09:00:26;;;;;;;16.77;11.77;;;6.00;99.90;;;;;;5087964;28;20764;-70
2024/03/06 09:02:54;;;;;;;16.80;10.73;;;6.00;99.90;;;;;;5086426;28;20226;-70
2024/03/06 09:05:21;;;;;;;15.37;11.13;;;6.10;99.90;;;;;;5088012;28;20198;-71
2024/03/06 09:07:48;;;;;;;12.37;11.07;;;6.10;99.90;;;;;;5088319;28;20202;-71
2024/03/06 09:10:15;;;;;;;12.47;11.13;;;6.10;99.90;;;;;;5088013;28;20322;-70
2024/03/06 09:12:42;;;;;;;13.73;11.20;;;6.10;99.90;;;;;;5087812;28;20345;-71
2024/03/06 09:15:11;;;;;;;12.37;10.40;;;6.10;99.90;;;;;;5088022;28;20267;-71
2024/03/06 09:17:38;;;;;;;11.70;10.13;;;6.30;99.90;;;;;;5087845;28;20631;-71
2024/03/06 09:20:09;;;;;;;10.53;9.43;;;6.50;99.90;;;;;;5087657;28;20214;-71
2024/03/06 09:22:37;;;;;;;11.20;9.67;;;6.60;99.90;;;;;;5087696;28;20223;-71
2024/03/06 09:25:05;;;;;;;11.03;9.67;;;6.70;99.90;;;;;;5088064;28;20285;-71
2024/03/06 09:27:32;;;;;;;11.37;10.17;;;6.90;99.90;;;;;;5087878;28;20285;-71
2024/03/06 09:29:59;;;;;;;12.17;10.20;;;7.00;99.90;;;;;;5087194;28;20203;-70
2024/03/06 09:32:27;;;;;;;11.53;9.60;;;7.00;99.90;;;;;;5087361;28;21144;-71
2024/03/06 09:34:54;;;;;;;10.03;9.03;;;7.20;99.90;;;;;;5067417;28;20332;-70
2024/03/06 09:37:21;;;;;;;10.13;9.07;;;7.30;99.90;;;;;;5067374;28;20290;-70
2024/03/06 09:39:48;;;;;;;8.53;7.63;;;7.50;99.90;;;;;;5087504;28;20324;-72
2024/03/06 09:42:15;;;;;;;7.17;6.63;;;7.60;99.90;;;;;;5087242;28;20787;-71
2024/03/06 09:44:42;;;;;;;7.87;7.07;;;7.60;99.90;;;;;;5087194;28;20655;-70
2024/03/06 09:47:13;;;;;;;8.50;7.60;;;7.70;99.90;;;;;;5087515;28;20798;-70
2024/03/06 09:49:42;;;;;;;8.00;6.83;;;7.80;99.90;;;;;;5087413;28;20226;-70
2024/03/06 09:52:11;;;;;;;9.30;7.03;;;8.00;99.90;;;;;;5087464;28;20280;-70
2024/03/06 09:54:39;;;;;;;7.07;6.47;;;8.20;99.90;;;;;;5086728;28;20210;-70
2024/03/06 09:57:06;;;;;;;6.83;6.23;;;8.40;99.90;;;;;;5087022;28;20215;-70
2024/03/06 09:59:33;;;;;;;6.13;5.63;;;8.60;99.90;;;;;;5086665;28;20672;-70
2024/03/06 10:02:03;;;;;;;6.53;5.97;;;8.70;99.90;;;;;;5087099;28;20278;-71
2024/03/06 10:04:34;;;;;;;6.73;6.03;;;8.70;99.90;;;;;;5087106;28;20657;-71
2024/03/06 10:07:03;;;;;;;6.57;6.07;;;8.80;99.90;;;;;;5087571;28;20203;-71
2024/03/06 10:09:31;;;;;;;11.63;6.83;;;8.70;99.90;;;;;;5086705;28;20226;-70
2024/03/06 10:11:58;;;;;;;14.20;7.13;;;8.60;99.90;;;;;;5086997;28;20233;-71
2024/03/06 10:14:25;;;;;;;8.83;6.10;;;8.40;99.90;;;;;;5087351;28;20602;-71
2024/03/06 10:16:56;;;;;;;6.10;5.60;;;8.30;99.90;;;;;;5087294;28;20285;-71
2024/03/06 10:19:24;;;;;;;6.77;6.17;;;8.20;99.90;;;;;;5087214;28;20598;-70
2024/03/06 10:21:51;;;;;;;6.57;5.90;;;8.20;99.90;;;;;;5086998;28;20305;-70
2024/03/06 10:24:23;;;;;;;6.23;5.63;;;8.10;99.90;;;;;;5087111;28;20207;-71
2024/03/06 10:26:50;;;;;;;5.70;5.10;;;8.20;99.90;;;;;;5087185;28;20226;-71
2024/03/06 10:29:18;;;;;;;5.67;5.00;;;8.20;99.90;;;;;;5086948;28;20248;-71
2024/03/06 10:31:49;;;;;;;6.07;5.30;;;8.40;99.90;;;;;;5087137;28;20211;-70
2024/03/06 10:34:17;;;;;;;4.90;4.60;;;8.70;99.90;;;;;;5086733;28;20202;-71
2024/03/06 10:36:44;;;;;;;5.20;4.80;;;8.90;99.90;;;;;;5086791;28;20218;-70
2024/03/06 10:39:14;;;;;;;6.03;5.53;;;9.20;99.90;;;;;;5086879;28;20294;-70
2024/03/06 10:41:44;;;;;;;5.60;5.10;;;9.30;99.90;;;;;;5088570;28;20213;-70
2024/03/06 10:44:18;;;;;;;5.57;5.07;;;9.50;99.90;;;;;;5090908;28;20206;-71
2024/03/06 10:46:47;;;;;;;4.23;3.93;;;9.70;99.90;;;;;;5091182;28;20190;-70
2024/03/06 10:49:14;;;;;;;5.10;4.70;;;9.80;99.90;;;;;;5091102;28;20592;-71
2024/03/06 10:51:44;;;;;;;5.37;4.87;;;10.00;99.90;;;;;;5090992;28;20202;-70
2024/03/06 10:54:14;;;;;;;5.47;4.97;;;10.10;99.90;;;;;;5091030;28;20198;-71
2024/03/06 10:56:43;;;;;;;5.17;4.80;;;10.20;99.90;;;;;;5088741;28;20333;-70
2024/03/06 10:59:12;;;;;;;5.63;5.17;;;10.40;99.90;;;;;;5090499;28;20764;-71
2024/03/06 11:01:40;;;;;;;4.67;4.30;;;10.50;99.90;;;;;;5090497;28;20642;-70
2024/03/06 11:04:08;;;;;;;6.10;4.50;;;10.70;99.90;;;;;;5090730;28;20253;-71
2024/03/06 11:06:35;;;;;;;5.17;4.77;;;10.70;99.90;;;;;;5090255;28;20206;-70
2024/03/06 11:09:03;;;;;;;6.20;5.70;;;10.50;99.90;;;;;;5090288;28;20203;-70
2024/03/06 11:11:32;;;;;;;14.17;6.73;;;10.20;99.90;;;;;;5089847;28;20205;-70
2024/03/06 11:14:08;;;;;;;7.93;5.80;;;10.00;99.90;;;;;;5089742;28;20288;-70
2024/03/06 11:17:02;;;;;;;7.53;5.60;;;9.70;99.90;;;;;;5090094;28;20191;-70
2024/03/06 11:19:30;;;;;;;6.20;5.70;;;9.60;99.90;;;;;;5089852;28;20205;-71
2024/03/06 11:21:57;;;;;;;6.23;5.57;;;9.50;99.90;;;;;;5090262;28;20217;-70
2024/03/06 11:24:24;;;;;;;8.07;6.53;;;9.40;99.90;;;;;;5089827;28;20760;-70
2024/03/06 11:26:57;;;;;;;7.27;6.57;;;9.30;99.90;;;;;;5089719;28;20721;-70
2024/03/06 11:29:29;;;;;;;7.27;6.67;;;9.30;99.90;;;;;;5089990;28;20195;-70
2024/03/06 11:32:07;;;;;;;11.67;7.30;;;9.10;99.90;;;;;;5090181;28;20231;-70
2024/03/06 11:34:34;;;;;;;8.13;6.90;;;9.20;99.90;;;;;;5089627;28;20290;-71
2024/03/06 11:37:09;;;;;;;8.23;7.43;;;9.50;99.90;;;;;;5089610;28;20266;-71
2024/03/06 11:39:37;;;;;;;8.80;7.63;;;9.80;99.90;;;;;;5071250;28;20202;-71
2024/03/06 11:42:05;;;;;;;8.67;7.93;;;10.00;99.90;;;;;;5069499;28;20212;-71
2024/03/06 11:44:33;;;;;;;9.63;8.70;;;10.00;99.90;;;;;;5069115;28;20208;-71
2024/03/06 11:47:01;;;;;;;8.70;7.90;;;9.90;99.90;;;;;;5077810;28;20203;-71
2024/03/06 11:49:31;;;;;;;8.00;7.20;;;9.80;99.90;;;;;;5089821;28;20302;-70
2024/03/06 11:51:59;;;;;;;7.90;6.83;;;9.80;99.90;;;;;;5088058;28;20199;-71
2024/03/06 11:54:28;;;;;;;10.30;8.77;;;9.90;99.90;;;;;;5088608;28;20290;-71
2024/03/06 11:56:56;;;;;;;10.07;8.90;;;10.10;99.90;;;;;;5089407;28;20206;-70
2024/03/06 11:59:23;;;;;;;9.57;8.60;;;10.20;99.90;;;;;;5089277;28;20294;-71
2024/03/06 12:01:52;;;;;;;15.40;9.53;;;10.10;99.90;;;;;;5089909;28;20570;-71
2024/03/06 12:04:20;;;;;;;10.27;8.77;;;10.00;99.90;;;;;;5089255;28;20237;-71
2024/03/06 12:06:47;;;;;;;10.10;9.07;;;10.20;99.90;;;;;;5089590;28;20210;-71
2024/03/06 12:09:15;;;;;;;10.93;9.30;;;10.40;99.90;;;;;;5089056;28;20234;-71
2024/03/06 12:11:44;;;;;;;10.47;9.47;;;10.70;99.90;;;;;;5088955;28;20214;-71
2024/03/06 12:14:16;;;;;;;11.17;10.03;;;11.00;99.90;;;;;;5089115;28;20249;-71
2024/03/06 12:16:44;;;;;;;10.47;8.70;;;11.20;99.90;;;;;;5088831;28;20705;-71
2024/03/06 12:19:12;;;;;;;11.23;8.17;;;11.20;99.90;;;;;;5088939;28;20302;-71
2024/03/06 12:21:40;;;;;;;18.37;8.73;;;11.00;99.90;;;;;;5089178;28;20308;-70
2024/03/06 12:24:09;;;;;;;8.90;8.00;;;11.10;99.90;;;;;;5089162;28;20323;-70
2024/03/06 12:26:37;;;;;;;7.80;6.70;;;11.30;99.90;;;;;;5088797;28;20289;-71
2024/03/06 12:29:08;;;;;;;7.20;6.60;;;11.50;99.90;;;;;;5089037;28;20665;-71
2024/03/06 12:31:36;;;;;;;7.97;7.20;;;11.70;99.90;;;;;;5089213;28;20207;-70
2024/03/06 12:34:03;;;;;;;7.80;7.07;;;12.00;99.90;;;;;;5089152;28;20625;-70
2024/03/06 12:36:32;;;;;;;7.97;7.27;;;12.20;99.90;;;;;;5089067;28;20203;-70
2024/03/06 12:39:01;;;;;;;7.40;6.70;;;12.30;99.90;;;;;;5075591;28;20293;-70
2024/03/06 12:41:29;;;;;;;7.70;7.00;;;12.20;99.90;;;;;;5068306;28;20310;-70
2024/03/06 12:43:56;;;;;;;10.47;8.07;;;11.90;99.90;;;;;;5082545;28;20238;-70